Time;durP1;ratioP1;P1;durP2;ratioP2;P2;SDS_P1;SDS_P2;PMS_P1;PMS_P2;Temp;Humidity;BMP_temperature;BMP_pressure;BME280_temperature;BME280_humidity;BME280_pressure;Samples;Min_cycle;Max_cycle;Signal;HPM_P1;HPM_P2
2022/08/16 00:02:01;;;;;;;8.65;7.85;;;21.50;99.90;;;;;;5056972;28;20450;-59
2022/08/16 00:04:27;;;;;;;9.75;8.75;;;21.40;99.90;;;;;;5072914;28;20052;-60
2022/08/16 00:06:54;;;;;;;9.25;8.40;;;21.40;99.90;;;;;;5056813;28;20033;-61
2022/08/16 00:09:20;;;;;;;11.80;9.40;;;21.50;99.90;;;;;;5056747;28;20032;-58
2022/08/16 00:11:47;;;;;;;8.55;7.82;;;21.50;99.90;;;;;;5072722;28;20270;-59
2022/08/16 00:14:18;;;;;;;11.57;9.00;;;21.50;99.90;;;;;;5055981;28;20048;-61
2022/08/16 00:16:45;;;;;;;10.35;9.20;;;21.40;99.90;;;;;;5056152;28;20424;-61
2022/08/16 00:19:17;;;;;;;12.30;9.63;;;21.30;99.90;;;;;;5057576;28;20402;-60
2022/08/16 00:21:43;;;;;;;10.98;9.57;;;21.20;99.90;;;;;;5056572;28;20320;-59
2022/08/16 00:24:10;;;;;;;11.05;9.80;;;21.00;99.90;;;;;;5056835;28;20057;-59
2022/08/16 00:26:36;;;;;;;11.05;9.85;;;20.90;99.90;;;;;;5056255;28;20094;-60
2022/08/16 00:29:02;;;;;;;11.93;9.98;;;20.90;99.90;;;;;;5056526;28;20045;-60
2022/08/16 00:31:31;;;;;;;10.70;9.55;;;20.70;99.90;;;;;;5056582;28;20033;-59
2022/08/16 00:33:57;;;;;;;12.88;9.80;;;20.70;99.90;;;;;;5056637;28;20029;-60
2022/08/16 00:36:23;;;;;;;15.35;10.63;;;20.60;99.90;;;;;;5072708;28;20325;-59
2022/08/16 00:38:48;;;;;;;10.57;9.70;;;20.60;99.90;;;;;;5057013;28;20312;-60
2022/08/16 00:41:14;;;;;;;10.93;9.50;;;20.60;99.90;;;;;;5072732;28;20029;-59
2022/08/16 00:43:40;;;;;;;13.45;10.57;;;20.80;99.90;;;;;;5056652;28;20043;-60
2022/08/16 00:46:31;;;;;;;11.73;10.38;;;20.90;99.90;;;;;;5056680;28;20387;-59
2022/08/16 00:48:57;;;;;;;11.20;9.52;;;21.00;99.90;;;;;;5056824;28;20039;-60
2022/08/16 00:51:24;;;;;;;10.73;9.57;;;21.00;99.90;;;;;;5055778;28;20033;-60
2022/08/16 00:53:53;;;;;;;11.60;10.40;;;21.00;99.90;;;;;;5055688;28;20025;-59
2022/08/16 00:56:22;;;;;;;12.75;9.55;;;21.10;99.90;;;;;;5059101;28;20515;-60
2022/08/16 00:58:49;;;;;;;14.20;11.73;;;21.10;99.90;;;;;;5060307;28;20051;-60
2022/08/16 01:01:16;;;;;;;11.63;10.48;;;21.10;99.90;;;;;;5060505;28;20029;-60
2022/08/16 01:03:46;;;;;;;13.73;10.65;;;21.10;99.90;;;;;;5076117;28;20032;-60
2022/08/16 01:06:13;;;;;;;13.32;11.95;;;21.10;99.90;;;;;;5060233;28;20392;-60
2022/08/16 01:08:41;;;;;;;13.60;11.50;;;21.10;99.90;;;;;;5059480;28;20094;-60
2022/08/16 01:11:07;;;;;;;12.23;10.98;;;21.10;99.90;;;;;;5059973;28;20029;-60
2022/08/16 01:13:35;;;;;;;12.55;11.35;;;21.10;99.90;;;;;;5060083;28;20353;-60
2022/08/16 01:16:18;;;;;;;12.60;11.35;;;21.10;99.90;;;;;;5060034;28;20029;-60
2022/08/16 01:18:51;;;;;;;14.07;11.75;;;21.10;99.90;;;;;;5060244;28;20072;-60
2022/08/16 01:21:54;;;;;;;14.30;12.40;;;21.10;99.90;;;;;;5059817;28;20147;-59
2022/08/16 01:24:41;;;;;;;16.40;13.20;;;21.10;99.90;;;;;;5059853;28;20037;-60
2022/08/16 01:27:23;;;;;;;14.85;13.02;;;21.00;99.90;;;;;;5075721;28;20459;-60
2022/08/16 01:29:58;;;;;;;15.57;12.80;;;21.00;99.90;;;;;;5059887;28;20329;-59
2022/08/16 01:32:24;;;;;;;13.70;12.40;;;21.00;99.90;;;;;;5075708;28;20025;-59
2022/08/16 01:34:49;;;;;;;14.05;12.75;;;21.00;99.90;;;;;;5059181;28;20027;-59
2022/08/16 01:37:16;;;;;;;14.20;12.57;;;20.90;99.90;;;;;;5060522;28;20040;-61
2022/08/16 01:39:42;;;;;;;18.20;13.48;;;20.90;99.90;;;;;;5075451;28;20041;-60
2022/08/16 01:42:08;;;;;;;15.23;13.63;;;20.90;99.90;;;;;;5058825;28;20033;-60
2022/08/16 01:44:36;;;;;;;17.60;14.13;;;20.80;99.90;;;;;;5059412;28;20095;-59
2022/08/16 01:47:02;;;;;;;16.73;14.10;;;20.70;99.90;;;;;;5059416;28;20032;-59
2022/08/16 01:49:34;;;;;;;17.48;14.02;;;20.70;99.90;;;;;;5058158;28;20025;-59
2022/08/16 01:52:05;;;;;;;16.45;13.90;;;20.60;99.90;;;;;;5059406;28;20292;-59
2022/08/16 01:54:47;;;;;;;15.65;13.85;;;20.50;99.90;;;;;;5075178;28;20029;-59
2022/08/16 01:57:13;;;;;;;15.05;13.63;;;20.60;99.90;;;;;;5075473;28;20361;-58
2022/08/16 01:59:40;;;;;;;15.50;13.85;;;20.60;99.90;;;;;;5058513;28;20021;-59
2022/08/16 02:02:08;;;;;;;19.33;15.20;;;20.70;99.90;;;;;;5058266;28;20063;-60
2022/08/16 02:04:34;;;;;;;18.55;15.15;;;20.70;99.90;;;;;;5041819;28;20033;-61
2022/08/16 02:07:07;;;;;;;20.75;16.20;;;20.50;99.90;;;;;;5057472;28;20044;-59
2022/08/16 02:09:34;;;;;;;;;;;20.40;99.90;;;;;;5058593;28;20147;-60
2022/08/16 02:12:01;;;;;;;18.33;15.52;;;20.40;99.90;;;;;;5058246;28;19943;-60
2022/08/16 02:14:29;;;;;;;16.90;14.48;;;20.40;99.90;;;;;;5074795;28;20112;-59
2022/08/16 02:17:00;;;;;;;17.70;15.82;;;20.30;99.90;;;;;;5074734;28;20044;-60
2022/08/16 02:19:29;;;;;;;16.30;14.60;;;20.30;99.90;;;;;;5074534;28;20029;-59
2022/08/16 02:21:57;;;;;;;17.63;14.48;;;20.30;99.90;;;;;;5058748;28;20044;-59
2022/08/16 02:24:23;;;;;;;16.92;14.57;;;20.50;99.90;;;;;;5058617;28;20060;-59
2022/08/16 02:26:49;;;;;;;16.85;15.25;;;20.40;99.90;;;;;;5074528;28;20126;-59
2022/08/16 02:29:20;;;;;;;18.02;15.32;;;20.20;99.90;;;;;;5058542;28;20246;-59
2022/08/16 02:31:48;;;;;;;17.98;16.13;;;20.10;99.90;;;;;;5058539;28;20090;-59
2022/08/16 02:34:15;;;;;;;20.13;16.00;;;20.00;99.90;;;;;;5057682;28;20027;-59
2022/08/16 02:36:41;;;;;;;18.15;16.05;;;20.00;99.90;;;;;;5074279;28;20029;-59
2022/08/16 02:39:09;;;;;;;17.60;15.48;;;19.90;99.90;;;;;;5057494;28;20029;-59
2022/08/16 02:41:37;;;;;;;22.42;17.60;;;19.80;99.90;;;;;;5058262;28;20021;-59
2022/08/16 02:44:05;;;;;;;18.80;17.00;;;19.80;99.90;;;;;;5057862;28;20288;-60
2022/08/16 02:46:32;;;;;;;18.88;16.48;;;19.80;99.90;;;;;;5057370;28;20025;-60
2022/08/16 02:48:59;;;;;;;18.67;16.73;;;19.90;99.90;;;;;;5073932;28;20040;-60
2022/08/16 02:51:26;;;;;;;22.92;18.27;;;19.90;99.90;;;;;;5057246;28;20446;-60
2022/08/16 02:53:53;;;;;;;18.98;16.98;;;19.90;99.90;;;;;;5057333;28;20095;-60
2022/08/16 02:56:20;;;;;;;18.73;16.73;;;19.90;99.90;;;;;;5057317;28;20492;-60
2022/08/16 02:58:48;;;;;;;18.95;17.08;;;19.90;99.90;;;;;;5058284;28;20024;-59
2022/08/16 03:01:21;;;;;;;21.73;16.83;;;19.90;99.90;;;;;;5057233;28;20029;-60
2022/08/16 03:03:47;;;;;;;20.25;16.55;;;19.80;99.90;;;;;;5074047;28;20060;-60
2022/08/16 03:06:18;;;;;;;18.80;16.85;;;19.80;99.90;;;;;;5040591;28;20170;-60
2022/08/16 03:08:44;;;;;;;17.92;16.23;;;19.80;99.90;;;;;;5073727;28;20415;-60
2022/08/16 03:11:11;;;;;;;19.83;17.60;;;19.90;99.90;;;;;;5073628;28;20051;-60
2022/08/16 03:13:39;;;;;;;20.00;17.83;;;19.90;99.90;;;;;;5056942;28;20029;-60
2022/08/16 03:16:05;;;;;;;18.67;16.75;;;19.90;99.90;;;;;;5057702;28;20087;-60
2022/08/16 03:18:31;;;;;;;18.52;16.70;;;19.90;99.90;;;;;;5039978;28;20136;-60
2022/08/16 03:20:58;;;;;;;18.05;16.15;;;19.90;99.90;;;;;;5056611;28;20044;-59
2022/08/16 03:23:25;;;;;;;18.67;16.67;;;20.00;99.90;;;;;;5057030;28;20352;-59
2022/08/16 03:25:51;;;;;;;19.75;16.42;;;20.10;99.90;;;;;;5056675;28;20367;-60
2022/08/16 03:28:19;;;;;;;19.25;16.20;;;20.10;99.90;;;;;;5056763;28;20311;-59
2022/08/16 03:30:47;;;;;;;20.55;17.05;;;20.10;99.90;;;;;;5056588;28;20098;-59
2022/08/16 03:33:13;;;;;;;18.95;16.98;;;20.00;99.90;;;;;;5056597;28;20090;-59
2022/08/16 03:35:45;;;;;;;;;;;20.00;99.90;;;;;;5041238;28;20029;-59
2022/08/16 03:38:27;;;;;;;26.52;21.65;;;20.00;99.90;;;;;;5056270;28;19948;-59
2022/08/16 03:40:55;;;;;;;24.55;18.38;;;20.00;99.90;;;;;;5072784;28;20025;-59
2022/08/16 03:43:23;;;;;;;17.60;15.98;;;19.80;99.90;;;;;;5056400;28;20032;-59
2022/08/16 03:45:54;;;;;;;19.45;17.02;;;19.70;99.90;;;;;;5072953;28;20043;-60
2022/08/16 03:48:27;;;;;;;20.42;16.90;;;19.60;99.90;;;;;;5056690;28;20040;-60
2022/08/16 03:50:53;;;;;;;20.67;17.17;;;19.60;99.90;;;;;;5039790;28;20037;-59
2022/08/16 03:53:19;;;;;;;19.20;16.70;;;19.60;99.90;;;;;;5039789;28;20029;-60
2022/08/16 03:55:45;;;;;;;17.88;16.15;;;19.60;99.90;;;;;;5039627;28;20029;-60
2022/08/16 03:58:11;;;;;;;17.90;16.10;;;19.60;99.90;;;;;;5057281;28;20056;-60
2022/08/16 04:00:37;;;;;;;19.15;16.75;;;19.70;99.90;;;;;;5057447;28;20041;-60
2022/08/16 04:03:06;;;;;;;18.90;15.98;;;19.60;99.90;;;;;;5057281;28;20396;-61
2022/08/16 04:05:37;;;;;;;19.10;16.60;;;19.70;99.90;;;;;;5039767;28;20029;-61
2022/08/16 04:08:05;;;;;;;19.50;17.42;;;19.60;99.90;;;;;;5072833;28;20110;-61
2022/08/16 04:10:32;;;;;;;18.48;16.45;;;19.60;99.90;;;;;;5056754;28;20045;-60
2022/08/16 04:12:58;;;;;;;18.45;16.45;;;19.60;99.90;;;;;;5056845;28;20086;-60
2022/08/16 04:15:24;;;;;;;19.58;16.92;;;19.70;99.90;;;;;;5056796;28;20108;-60
2022/08/16 04:18:06;;;;;;;18.05;16.20;;;19.70;99.90;;;;;;5072729;28;20025;-60
2022/08/16 04:20:32;;;;;;;18.90;16.48;;;19.70;99.90;;;;;;5056556;28;20094;-60
2022/08/16 04:22:59;;;;;;;18.35;16.63;;;19.70;99.90;;;;;;5055928;28;20021;-61
2022/08/16 04:25:28;;;;;;;18.92;16.67;;;19.70;99.90;;;;;;5056849;28;20348;-60
2022/08/16 04:27:54;;;;;;;19.30;17.33;;;19.60;99.90;;;;;;5057148;28;20112;-60
2022/08/16 04:30:21;;;;;;;17.85;16.08;;;19.60;99.90;;;;;;5057158;28;20029;-60
2022/08/16 04:32:49;;;;;;;18.58;16.67;;;19.60;99.90;;;;;;5060032;28;20033;-60
2022/08/16 04:35:18;;;;;;;18.88;16.95;;;19.60;99.90;;;;;;5059893;28;20029;-60
2022/08/16 04:37:47;;;;;;;18.98;16.65;;;19.60;99.90;;;;;;5076508;28;20048;-60
2022/08/16 04:40:19;;;;;;;20.00;17.90;;;19.60;99.90;;;;;;5076508;28;20039;-60
2022/08/16 04:42:50;;;;;;;22.73;17.38;;;19.60;99.90;;;;;;5076909;28;20308;-61
2022/08/16 04:45:16;;;;;;;20.50;17.77;;;19.70;99.90;;;;;;5076178;28;20033;-60
2022/08/16 04:47:44;;;;;;;19.98;17.75;;;19.80;99.90;;;;;;5060654;28;20029;-60
2022/08/16 04:50:20;;;;;;;19.13;17.13;;;19.70;99.90;;;;;;5076132;28;20037;-61
2022/08/16 04:53:09;;;;;;;20.30;17.75;;;19.70;99.90;;;;;;5062614;28;20033;-60
2022/08/16 04:55:37;;;;;;;21.95;17.67;;;19.80;99.90;;;;;;5043399;28;20326;-60
2022/08/16 04:58:05;;;;;;;18.85;16.88;;;19.80;99.90;;;;;;5059567;28;20186;-61
2022/08/16 05:00:33;;;;;;;19.63;17.23;;;19.60;99.90;;;;;;5076297;28;20041;-61
2022/08/16 05:03:16;;;;;;;21.42;18.13;;;19.60;99.90;;;;;;5076108;28;20087;-60
2022/08/16 05:05:45;;;;;;;20.42;18.33;;;19.50;99.90;;;;;;5059294;28;20078;-61
2022/08/16 05:08:12;;;;;;;20.65;17.58;;;19.40;99.90;;;;;;5026679;28;20365;-60
2022/08/16 05:10:42;;;;;;;19.67;17.33;;;19.50;99.90;;;;;;5076618;28;20124;-60
2022/08/16 05:13:09;;;;;;;20.25;18.08;;;19.50;99.90;;;;;;5075805;28;20029;-60
2022/08/16 05:15:35;;;;;;;21.75;17.55;;;19.50;99.90;;;;;;5042712;28;20033;-60
2022/08/16 05:18:02;;;;;;;21.08;17.25;;;19.40;99.90;;;;;;5059466;28;20459;-60
2022/08/16 05:20:32;;;;;;;20.13;17.90;;;19.40;99.90;;;;;;5075869;28;20427;-61
2022/08/16 05:22:59;;;;;;;20.10;17.70;;;19.40;99.90;;;;;;5059088;28;20040;-60
2022/08/16 05:25:26;;;;;;;22.65;17.65;;;19.30;99.90;;;;;;5042586;28;20040;-60
2022/08/16 05:27:54;;;;;;;20.33;17.85;;;19.30;99.90;;;;;;5075633;28;20332;-60
2022/08/16 05:30:21;;;;;;;21.17;17.40;;;19.30;99.90;;;;;;5042714;28;20060;-61
2022/08/16 05:32:48;;;;;;;19.80;17.88;;;19.30;99.90;;;;;;5075643;28;20037;-61
2022/08/16 05:35:15;;;;;;;22.27;17.75;;;19.40;99.90;;;;;;5059630;28;20401;-61
2022/08/16 05:38:06;;;;;;;19.25;17.20;;;19.60;99.90;;;;;;5075551;28;20037;-61
2022/08/16 05:40:33;;;;;;;21.33;17.98;;;19.60;99.90;;;;;;5075522;28;20300;-60
2022/08/16 05:43:00;;;;;;;19.77;16.27;;;19.60;99.90;;;;;;5058525;28;20106;-61
2022/08/16 05:45:25;;;;;;;21.38;18.08;;;19.70;99.90;;;;;;5059483;28;20063;-60
2022/08/16 05:47:55;;;;;;;23.15;18.50;;;19.60;99.90;;;;;;5075168;28;20095;-61
2022/08/16 05:50:21;;;;;;;25.15;18.00;;;19.60;99.90;;;;;;5058428;28;20489;-61
2022/08/16 05:52:48;;;;;;;28.88;18.92;;;19.60;99.90;;;;;;5058472;28;20029;-61
2022/08/16 05:55:15;;;;;;;24.90;17.95;;;19.60;99.90;;;;;;5058515;28;20033;-61
2022/08/16 05:57:41;;;;;;;26.60;19.02;;;19.60;99.90;;;;;;5075100;28;20048;-60
2022/08/16 06:00:10;;;;;;;23.67;18.52;;;19.50;99.90;;;;;;5075142;28;20033;-61
2022/08/16 06:02:40;;;;;;;20.95;17.65;;;19.50;99.90;;;;;;5059678;28;20037;-61
2022/08/16 06:05:24;;;;;;;22.90;18.48;;;19.40;99.90;;;;;;5074914;28;20304;-60
2022/08/16 06:07:50;;;;;;;21.90;19.13;;;19.60;99.90;;;;;;5058529;28;20036;-61
2022/08/16 06:10:24;;;;;;;20.65;18.45;;;19.60;99.90;;;;;;5058077;28;20425;-60
2022/08/16 06:12:50;;;;;;;20.42;18.42;;;19.60;99.90;;;;;;5074810;28;20033;-60
2022/08/16 06:15:18;;;;;;;19.17;17.15;;;19.60;99.90;;;;;;5059042;28;20029;-61
2022/08/16 06:17:45;;;;;;;22.35;18.42;;;19.60;99.90;;;;;;5058609;28;20036;-61
2022/08/16 06:20:23;;;;;;;20.40;18.13;;;19.80;99.90;;;;;;5058683;28;20064;-61
2022/08/16 06:22:49;;;;;;;24.65;18.13;;;19.80;99.90;;;;;;5074640;28;20119;-61
2022/08/16 06:25:16;;;;;;;23.45;18.00;;;19.80;99.90;;;;;;5057718;28;20033;-62
2022/08/16 06:27:42;;;;;;;20.73;17.98;;;19.90;99.90;;;;;;5074354;28;20308;-63
2022/08/16 06:30:10;;;;;;;19.98;17.77;;;19.80;99.90;;;;;;5058312;28;20341;-60
2022/08/16 06:32:37;;;;;;;21.77;17.40;;;19.90;99.90;;;;;;5041376;28;20304;-60
2022/08/16 06:35:04;;;;;;;21.85;17.48;;;19.90;99.90;;;;;;5058441;28;20088;-60
2022/08/16 06:37:33;;;;;;;19.40;17.33;;;20.00;99.90;;;;;;5057785;28;20021;-59
2022/08/16 06:39:59;;;;;;;18.45;16.65;;;20.10;99.90;;;;;;5057586;28;20033;-60
2022/08/16 06:42:36;;;;;;;22.25;17.08;;;20.10;99.90;;;;;;5074268;28;20033;-60
2022/08/16 06:45:09;;;;;;;19.58;15.60;;;20.20;99.90;;;;;;5058718;28;20304;-61
2022/08/16 06:47:49;;;;;;;21.95;15.73;;;20.40;99.90;;;;;;5074177;28;20061;-60
2022/08/16 06:50:16;;;;;;;18.90;15.40;;;20.40;99.90;;;;;;5058192;28;20025;-62
2022/08/16 06:52:46;;;;;;;17.90;14.90;;;20.50;99.90;;;;;;5074029;28;20044;-61
2022/08/16 06:55:15;;;;;;;18.52;13.85;;;20.50;99.90;;;;;;5057503;28;20060;-59
2022/08/16 06:57:46;;;;;;;18.00;12.48;;;20.50;99.90;;;;;;5074276;28;20029;-60
2022/08/16 07:00:14;;;;;;;16.15;12.93;;;20.70;99.90;;;;;;5073889;28;20045;-60
2022/08/16 07:02:52;;;;;;;14.95;13.38;;;20.90;99.90;;;;;;5057224;28;20089;-61
2022/08/16 07:05:19;;;;;;;15.88;13.13;;;21.30;99.90;;;;;;5057361;28;20048;-59
2022/08/16 07:08:02;;;;;;;14.65;13.02;;;21.50;99.90;;;;;;5073804;28;20090;-60
2022/08/16 07:10:28;;;;;;;14.68;12.75;;;21.50;99.90;;;;;;5057034;28;20040;-60
2022/08/16 07:12:54;;;;;;;13.32;10.90;;;21.50;99.90;;;;;;5057761;28;20060;-61
2022/08/16 07:15:24;;;;;;;13.27;11.88;;;21.50;99.90;;;;;;5057749;28;20021;-61
2022/08/16 07:17:50;;;;;;;11.60;10.40;;;21.60;99.90;;;;;;5057861;28;20036;-59
2022/08/16 07:20:21;;;;;;;14.63;11.52;;;21.90;99.90;;;;;;5073271;28;20045;-61
2022/08/16 07:22:54;;;;;;;11.27;10.07;;;22.00;99.90;;;;;;5056783;28;20126;-60
2022/08/16 07:25:24;;;;;;;12.98;10.55;;;22.10;99.90;;;;;;5073325;28;20033;-62
2022/08/16 07:27:50;;;;;;;11.98;10.70;;;21.80;99.90;;;;;;5056739;28;20025;-59
2022/08/16 07:30:20;;;;;;;11.30;9.98;;;21.80;99.90;;;;;;5040349;28;20044;-58
2022/08/16 07:32:46;;;;;;;14.93;11.30;;;22.00;99.90;;;;;;5073177;28;20029;-61
2022/08/16 07:35:12;;;;;;;11.63;9.50;;;22.10;99.90;;;;;;5056549;28;20036;-60
2022/08/16 07:37:38;;;;;;;12.93;10.05;;;22.20;99.90;;;;;;5056458;28;20033;-60
2022/08/16 07:40:18;;;;;;;15.20;9.73;;;22.30;99.90;;;;;;5073081;28;20072;-59
2022/08/16 07:42:44;;;;;;;10.52;9.40;;;22.30;99.90;;;;;;5056369;28;20068;-59
2022/08/16 07:45:10;;;;;;;12.38;9.10;;;22.60;99.90;;;;;;5057085;28;20032;-60
2022/08/16 07:47:40;;;;;;;11.85;9.38;;;22.80;99.90;;;;;;5056400;28;20033;-59
2022/08/16 07:50:06;;;;;;;12.43;9.55;;;23.10;99.90;;;;;;5056247;28;20024;-59
2022/08/16 07:52:33;;;;;;;10.75;9.25;;;23.20;99.90;;;;;;5057503;28;20036;-58
2022/08/16 07:55:01;;;;;;;11.20;8.50;;;23.20;99.90;;;;;;5057084;28;20041;-59
2022/08/16 07:57:27;;;;;;;9.85;7.68;;;23.50;99.90;;;;;;5056519;28;20102;-60
2022/08/16 07:59:53;;;;;;;9.60;7.82;;;23.70;99.90;;;;;;5056936;28;20351;-60
2022/08/16 08:02:19;;;;;;;8.90;7.78;;;24.00;99.90;;;;;;5056236;28;20033;-60
2022/08/16 08:04:46;;;;;;;8.73;7.53;;;23.80;99.90;;;;;;5055570;28;20033;-60
2022/08/16 08:07:12;;;;;;;9.85;7.82;;;24.10;99.90;;;;;;5056138;28;20128;-60
2022/08/16 08:09:38;;;;;;;10.93;8.38;;;24.20;99.90;;;;;;5055903;28;20037;-61
2022/08/16 08:12:04;;;;;;;12.68;8.98;;;23.80;99.90;;;;;;5056790;28;20470;-62
2022/08/16 08:14:35;;;;;;;9.00;8.13;;;23.60;99.90;;;;;;5056420;28;20037;-60
2022/08/16 08:17:06;;;;;;;8.75;7.53;;;23.60;99.90;;;;;;5055930;28;20339;-59
2022/08/16 08:19:36;;;;;;;10.43;7.78;;;23.60;99.90;;;;;;5055743;28;20041;-60
2022/08/16 08:22:04;;;;;;;12.43;7.25;;;23.80;99.90;;;;;;5039434;28;20162;-61
2022/08/16 08:24:37;;;;;;;12.43;7.30;;;23.70;99.90;;;;;;5040357;28;20067;-61
2022/08/16 08:27:05;;;;;;;10.52;7.25;;;23.90;99.90;;;;;;5055890;28;20033;-61
2022/08/16 08:29:35;;;;;;;8.65;7.55;;;24.20;99.90;;;;;;5055810;28;20051;-60
2022/08/16 08:32:01;;;;;;;8.25;6.43;;;24.80;99.90;;;;;;5055916;28;20075;-61
2022/08/16 08:34:27;;;;;;;12.23;6.80;;;25.20;99.90;;;;;;5039292;28;20029;-61
2022/08/16 08:36:54;;;;;;;6.32;5.70;;;25.40;99.90;;;;;;5056596;28;20029;-60
2022/08/16 08:39:40;;;;;;;9.85;6.07;;;25.70;99.90;;;;;;5056204;28;20120;-60
2022/08/16 08:42:06;;;;;;;10.52;6.10;;;25.60;99.90;;;;;;5055593;28;20060;-59
2022/08/16 08:44:34;;;;;;;10.45;5.93;;;25.60;99.90;;;;;;5055781;28;20120;-59
2022/08/16 08:47:08;;;;;;;10.65;6.15;;;26.00;99.90;;;;;;5055809;28;20044;-58
2022/08/16 08:49:36;;;;;;;7.95;5.82;;;26.60;99.90;;;;;;5055775;28;20037;-62
2022/08/16 08:52:03;;;;;;;11.40;6.18;;;26.60;99.90;;;;;;5055866;28;20033;-60
2022/08/16 08:54:29;;;;;;;8.35;5.63;;;26.30;99.90;;;;;;5056771;28;20288;-63
2022/08/16 08:56:55;;;;;;;6.13;5.50;;;25.50;99.90;;;;;;5022897;28;20045;-60
2022/08/16 08:59:41;;;;;;;6.97;5.70;;;25.30;99.90;;;;;;5056131;28;20037;-62
2022/08/16 09:02:14;;;;;;;9.85;5.30;;;25.80;99.90;;;;;;5055892;28;20397;-61
2022/08/16 09:04:45;;;;;;;9.80;5.60;;;25.80;99.90;;;;;;5055644;28;20404;-59
2022/08/16 09:07:12;;;;;;;7.15;5.43;;;26.10;99.90;;;;;;5055594;28;20392;-60
2022/08/16 09:09:38;;;;;;;6.82;4.68;;;26.70;99.90;;;;;;5055485;28;20021;-59
2022/08/16 09:12:07;;;;;;;5.00;4.45;;;26.80;99.90;;;;;;5055556;28;20309;-60
2022/08/16 09:14:49;;;;;;;5.72;5.05;;;26.70;99.90;;;;;;5055641;28;20416;-61
2022/08/16 09:17:15;;;;;;;10.73;5.55;;;26.40;99.90;;;;;;5041842;28;20025;-61
2022/08/16 09:19:41;;;;;;;6.53;4.65;;;26.50;99.90;;;;;;5059811;28;20036;-62
2022/08/16 09:22:08;;;;;;;7.00;5.05;;;26.10;99.90;;;;;;5059954;28;20278;-61
2022/08/16 09:24:35;;;;;;;9.20;4.70;;;26.30;99.90;;;;;;5060199;28;20096;-60
2022/08/16 09:27:01;;;;;;;6.65;4.57;;;26.40;99.90;;;;;;5059162;28;20048;-57
2022/08/16 09:29:27;;;;;;;9.55;4.65;;;26.90;99.90;;;;;;5058924;28;20424;-60
2022/08/16 09:31:56;;;;;;;9.45;4.75;;;27.50;99.90;;;;;;5059042;28;20079;-61
2022/08/16 09:34:23;;;;;;;5.78;3.90;;;27.10;99.90;;;;;;5060008;28;20320;-61
2022/08/16 09:36:49;;;;;;;10.45;4.88;;;26.70;99.90;;;;;;5059081;28;20033;-59
2022/08/16 09:39:16;;;;;;;5.80;4.15;;;27.10;99.90;;;;;;5059845;28;20346;-61
2022/08/16 09:41:48;;;;;;;5.75;4.70;;;26.80;99.90;;;;;;5059478;28;20033;-61
2022/08/16 09:44:15;;;;;;;7.25;4.55;;;26.40;99.90;;;;;;5059571;28;20028;-62
2022/08/16 09:46:41;;;;;;;7.55;4.85;;;26.60;99.90;;;;;;5059373;28;20017;-62
2022/08/16 09:49:07;;;;;;;8.15;4.70;;;26.70;99.90;;;;;;5059367;28;20033;-62
2022/08/16 09:51:33;;;;;;;7.10;4.20;;;26.60;99.90;;;;;;5059826;28;20470;-61
2022/08/16 09:54:02;;;;;;;7.82;4.93;;;27.10;99.90;;;;;;5059556;28;20029;-60
2022/08/16 09:56:30;;;;;;;10.88;4.80;;;27.30;99.90;;;;;;5059303;28;20037;-62
2022/08/16 09:58:58;;;;;;;8.40;4.40;;;27.70;99.90;;;;;;5059387;28;20021;-62
2022/08/16 10:01:24;;;;;;;5.03;4.20;;;27.30;99.90;;;;;;5059233;28;20029;-61
2022/08/16 10:03:52;;;;;;;8.02;4.60;;;27.60;99.90;;;;;;5059370;28;20021;-63
2022/08/16 10:06:20;;;;;;;6.25;4.63;;;27.70;99.90;;;;;;5058447;28;20037;-63
2022/08/16 10:08:49;;;;;;;7.07;4.72;;;27.30;99.90;;;;;;5059216;28;20364;-61
2022/08/16 10:14:00;;;;;;;7.70;4.20;;;27.30;99.90;;;;;;5058153;28;20309;-65
2022/08/16 10:16:26;;;;;;;7.68;4.00;;;27.40;99.90;;;;;;5058931;28;20021;-59
2022/08/16 10:18:52;;;;;;;6.30;4.00;;;27.00;99.90;;;;;;5059151;28;20044;-62
2022/08/16 10:21:18;;;;;;;6.82;4.32;;;27.00;99.90;;;;;;5058696;28;20049;-59
2022/08/16 10:23:44;;;;;;;8.35;4.72;;;27.00;99.90;;;;;;5058691;28;20037;-61
2022/08/16 10:26:11;;;;;;;4.97;4.10;;;27.20;99.90;;;;;;5058064;28;20032;-60
2022/08/16 10:28:37;;;;;;;6.25;4.60;;;27.20;99.90;;;;;;5057995;28;20092;-60
2022/08/16 10:31:04;;;;;;;7.78;4.65;;;27.30;99.90;;;;;;5058490;28;20033;-58
2022/08/16 10:33:32;;;;;;;5.88;3.90;;;27.40;99.90;;;;;;5058512;28;20039;-59
2022/08/16 10:35:59;;;;;;;7.22;3.80;;;27.60;99.90;;;;;;5057579;28;20052;-61
2022/08/16 10:38:25;;;;;;;3.92;3.63;;;27.40;99.90;;;;;;5058446;28;20021;-60
2022/08/16 10:40:53;;;;;;;7.78;3.40;;;27.30;99.90;;;;;;5058441;28;20040;-62
2022/08/16 10:43:19;;;;;;;9.23;4.13;;;27.40;99.90;;;;;;5058685;28;20103;-62
2022/08/16 10:45:47;;;;;;;8.30;4.35;;;27.20;99.90;;;;;;5058391;28;20033;-61
2022/08/16 10:48:13;;;;;;;8.60;4.38;;;27.40;99.90;;;;;;5058485;28;20029;-60
2022/08/16 10:50:39;;;;;;;7.22;4.28;;;28.10;99.90;;;;;;5058114;28;20044;-61
2022/08/16 10:53:05;;;;;;;5.30;3.80;;;28.70;99.90;;;;;;5058201;28;20033;-61
2022/08/16 10:55:39;;;;;;;6.45;3.38;;;28.90;99.90;;;;;;5058154;28;20082;-61
2022/08/16 10:58:08;;;;;;;8.75;3.78;;;29.00;99.90;;;;;;5058032;28;20036;-61
2022/08/16 11:00:35;;;;;;;4.95;3.30;;;28.80;99.90;;;;;;5058094;28;20111;-61
2022/08/16 11:03:02;;;;;;;4.35;2.95;;;28.40;99.90;;;;;;5057264;28;20044;-63
2022/08/16 11:05:34;;;;;;;3.38;3.08;;;28.60;99.90;;;;;;5057937;28;20037;-60
2022/08/16 11:08:00;;;;;;;3.67;3.10;;;29.20;99.90;;;;;;5057090;28;20044;-61
2022/08/16 11:10:30;;;;;;;3.70;3.40;;;29.40;99.90;;;;;;5057342;28;20470;-61
2022/08/16 11:12:57;;;;;;;6.72;2.97;;;28.90;99.90;;;;;;5058336;28;20297;-64
2022/08/16 11:15:23;;;;;;;7.32;3.25;;;28.10;99.90;;;;;;5056963;28;20021;-63
2022/08/16 11:17:50;;;;;;;8.27;3.30;;;27.90;99.90;;;;;;5057709;28;20379;-61
2022/08/16 11:20:18;;;;;;;8.55;3.13;;;28.20;99.90;;;;;;5057532;28;20056;-62
2022/08/16 11:22:48;;;;;;;7.68;3.17;;;28.70;99.90;;;;;;5057936;28;20126;-61
2022/08/16 11:25:19;;;;;;;7.13;2.80;;;28.40;99.90;;;;;;5057695;28;20270;-61
2022/08/16 11:27:46;;;;;;;3.38;2.80;;;29.50;99.90;;;;;;5057607;28;20025;-60
2022/08/16 11:30:15;;;;;;;3.47;3.17;;;30.20;99.90;;;;;;5057501;28;20049;-61
2022/08/16 11:32:43;;;;;;;10.55;3.42;;;30.10;99.90;;;;;;5057699;28;20412;-60
2022/08/16 11:35:14;;;;;;;5.63;3.05;;;30.40;99.90;;;;;;5057512;28;20028;-59
2022/08/16 11:37:45;;;;;;;4.20;3.30;;;30.20;99.90;;;;;;5057954;28;20090;-58
2022/08/16 11:40:12;;;;;;;4.80;3.10;;;30.40;99.90;;;;;;5056566;28;20035;-60
2022/08/16 11:42:38;;;;;;;4.82;3.30;;;29.90;99.90;;;;;;5056586;28;20040;-61
2022/08/16 11:45:04;;;;;;;7.85;3.05;;;29.60;99.90;;;;;;5057343;28;20309;-59
2022/08/16 11:47:30;;;;;;;3.03;2.70;;;29.90;99.90;;;;;;5057248;28;20393;-60
2022/08/16 11:49:56;;;;;;;3.78;2.75;;;29.70;99.90;;;;;;5057152;28;20041;-61
2022/08/16 11:52:22;;;;;;;4.43;2.92;;;29.40;99.90;;;;;;5057462;28;20028;-60
2022/08/16 11:54:49;;;;;;;4.60;2.92;;;29.20;99.90;;;;;;5056911;28;20029;-59
2022/08/16 11:57:15;;;;;;;8.20;3.13;;;30.10;99.90;;;;;;5056281;28;20037;-59
2022/08/16 11:59:41;;;;;;;5.45;3.25;;;30.90;98.80;;;;;;5056998;28;20033;-60
2022/08/16 12:02:08;;;;;;;3.85;2.70;;;31.20;97.90;;;;;;5056963;28;20132;-60
2022/08/16 12:04:34;;;;;;;5.25;2.80;;;32.10;97.30;;;;;;5056892;28;20326;-65
2022/08/16 12:07:02;;;;;;;4.20;2.83;;;31.30;96.40;;;;;;5056250;28;20100;-62
2022/08/16 12:09:29;;;;;;;3.60;3.05;;;29.80;98.90;;;;;;5056773;28;20032;-62
2022/08/16 12:11:55;;;;;;;4.15;2.97;;;29.80;99.50;;;;;;5056921;28;20029;-61
2022/08/16 12:14:21;;;;;;;3.22;2.92;;;30.00;98.90;;;;;;5056399;28;20051;-63
2022/08/16 12:16:47;;;;;;;6.18;3.10;;;30.00;97.90;;;;;;5056420;28;20112;-61
2022/08/16 12:19:13;;;;;;;3.33;2.85;;;29.70;98.30;;;;;;5055993;28;20029;-62
2022/08/16 12:21:40;;;;;;;3.45;3.15;;;30.30;97.40;;;;;;5057377;28;20065;-61
2022/08/16 12:24:06;;;;;;;4.60;3.05;;;31.70;96.30;;;;;;5056426;28;20045;-63
2022/08/16 12:26:32;;;;;;;5.43;2.88;;;31.40;95.20;;;;;;5056646;28;20448;-62
2022/08/16 12:29:00;;;;;;;3.97;3.10;;;31.90;95.70;;;;;;5056997;28;20033;-62
2022/08/16 12:31:26;;;;;;;3.67;2.58;;;32.80;93.20;;;;;;5056926;28;20040;-62
2022/08/16 12:33:53;;;;;;;4.10;2.78;;;33.50;91.70;;;;;;5055833;28;20029;-61
2022/08/16 12:36:19;;;;;;;3.45;3.05;;;34.70;90.50;;;;;;5055760;28;20416;-60
2022/08/16 12:38:45;;;;;;;5.07;2.53;;;35.20;83.50;;;;;;5056551;28;20033;-60
2022/08/16 12:41:12;;;;;;;4.93;2.60;;;35.80;79.00;;;;;;5055830;28;20056;-59
2022/08/16 12:43:40;;;;;;;4.95;2.40;;;36.00;76.10;;;;;;5055868;28;20037;-59
2022/08/16 12:46:08;;;;;;;4.15;2.53;;;36.10;72.80;;;;;;5055937;28;20168;-61